• Join FlightAware (Why Join?)
  • Login
  • US Flag 
07:09PM EDT


 

Airport Tracker/Info


-or-


 

Live Flight TrackerFlight Track Log ✈ HL-7403 ✈ 19-Apr-2013 ✈ RKSI / ICN - ZBTJ / TSN

Flight Track Log - Related Links

Times and Time Zones

All times are in EDT time to prevent confusion due to time zone crossing. See the HL-7403 flight status page for this flight to view local times or setup timezone preferences in your user account.

Time Position Orientation Groundspeed Altitude Reporting Facility
EDT Latitude Longitude Course Direction KTS MPH feet Rate Location/Type
10:52PM 37.5410 126.1600 226° Southwest 282 325 10,200  Level FlightAware
10:53PM 37.5040 126.1050 230° Southwest 311 358 11,200 1,020 Climbing FlightAware
10:54PM 37.4810 126.0140 252° West 333 383 11,900 2,040 Climbing FlightAware
10:55PM 37.4630 125.9270 255° West 364 419 14,500 3,720 Climbing FlightAware
10:55PM 37.4420 125.8300 255° West 371 427 17,200 2,460 Climbing FlightAware
10:56PM 37.4200 125.7320 254° West 376 433 18,400 2,820 Climbing FlightAware
10:57PM 37.4030 125.6160 260° West 383 441 21,900 2,640 Climbing FlightAware
10:58PM 37.4010 125.5060 269° West 386 444 23,100 1,740 Climbing FlightAware
10:59PM 37.4000 125.3880 269° West 394 453 25,000 1,260 Climbing FlightAware
10:59PM 37.3990 125.3100 269° West 394 453 25,000 3,060 Level FlightAware
11:00PM 37.3960 125.1730 268° West 392 451 29,600 2,880 Climbing FlightAware
11:01PM 37.3940 125.0550 269° West 387 445 30,100 300 Climbing FlightAware
11:02PM 37.3930 124.9790 269° West 387 445 30,100  Level FlightAware
11:03PM 37.3920 124.9020 269° West 387 445 30,100  Level FlightAware
11:03PM 37.3730 124.8030 256° West 30,100  Level FlightAware
11:06PM 37.4482 124.5256 289° West  Level Estimated
11:07PM 37.4788 124.4121 289° West  Level Estimated
11:08PM 37.5092 124.2986 289° West  Level Estimated
11:09PM 37.5395 124.1851 289° West  Level Estimated
11:10PM 37.5697 124.0714 289° West  Level Estimated
11:11PM 37.5998 123.9576 288° West  Level Estimated
11:12PM 37.6298 123.8437 288° West  Level Estimated
11:13PM 37.6597 123.7298 288° West  Level Estimated
11:14PM 37.6894 123.6157 288° West  Level Estimated
11:15PM 37.7191 123.5016 288° West  Level Estimated
11:16PM 37.7486 123.3873 288° West  Level Estimated
11:17PM 37.7781 123.2730 288° West  Level Estimated
11:18PM 37.8074 123.1586 288° West  Level Estimated
11:19PM 37.8366 123.0441 288° West  Level Estimated
11:20PM 37.8657 122.9295 288° West  Level Estimated
11:21PM 37.8947 122.8148 288° West  Level Estimated
11:22PM 37.9236 122.7000 288° West  Level Estimated
11:23PM 37.9524 122.5852 288° West  Level Estimated
11:24PM 37.9810 122.4702 288° West  Level Estimated
11:25PM 38.0096 122.3551 288° West  Level Estimated
11:26PM 38.0380 122.2400 287° West  Level Estimated
11:27PM 38.0663 122.1248 287° West  Level Estimated
11:28PM 38.0945 122.0095 287° West  Level Estimated
11:29PM 38.1226 121.8941 287° West  Level Estimated
11:30PM 38.1506 121.7786 287° West  Level Estimated
11:31PM 38.1785 121.6630 287° West  Level Estimated
11:32PM 38.2062 121.5473 287° West  Level Estimated
11:33PM 38.2339 121.4316 287° West  Level Estimated
11:34PM 38.2614 121.3157 287° West  Level Estimated
11:35PM 38.2888 121.1998 287° West  Level Estimated
11:36PM 38.3161 121.0838 287° West  Level Estimated
11:37PM 38.3433 120.9677 287° West  Level Estimated
11:38PM 38.3704 120.8515 287° West  Level Estimated
11:39PM 38.3973 120.7352 287° West  Level Estimated
11:40PM 38.4242 120.6188 286° West  Level Estimated
11:41PM 38.4509 120.5024 286° West  Level Estimated
11:42PM 38.4775 120.3858 286° West  Level Estimated
11:43PM 38.5040 120.2692 286° West  Level Estimated
11:44PM 38.5304 120.1525 286° West  Level Estimated
11:45PM 38.5567 120.0357 286° West  Level Estimated
11:46PM 38.5828 119.9188 286° West  Level Estimated
11:47PM 38.6088 119.8018 286° West  Level Estimated
11:48PM 38.6348 119.6848 286° West  Level Estimated
11:49PM 38.6605 119.5676 286° West  Level Estimated
11:50PM 38.6862 119.4504 286° West  Level Estimated
11:51PM 38.7118 119.3331 286° West  Level Estimated
11:52PM 38.7372 119.2157 286° West  Level Estimated
11:53PM 38.7626 119.0983 285° West  Level Estimated
11:54PM 38.7878 118.9807 285° West  Level Estimated
11:55PM 38.8129 118.8631 285° West  Level Estimated
11:56PM 38.8378 118.7454 285° West  Level Estimated
11:57PM 38.8627 118.6276 285° West  Level Estimated
11:58PM 38.8875 118.5097 285° West  Level Estimated
11:59PM 38.9121 118.3917 285° West  Level Estimated
12:00AM 38.9366 118.2737 285° West  Level Estimated
12:01AM 38.9609 118.1555 285° West  Level Estimated
12:02AM 38.9852 118.0373 285° West  Level Estimated
12:03AM 39.0093 117.9190 285° West  Level Estimated
12:04AM 39.0334 117.8007 285° West  Level Estimated
12:05AM 39.0573 117.6822 285° West  Level Estimated
12:06AM 39.0811 117.5637 285° West  Level Estimated
12:07AM 39.1047 117.4451 284° West  Level Estimated
12:08AM 39.1244 117.3462 284° West  Level Estimated
12:09AM 39.1244 117.3462 14° North  Level Estimated
12:10AM 39.1244 117.3462 14° North  Level Estimated
12:11AM 39.1244 117.3462 14° North  Level Estimated
12:12AM 39.1244 117.3462 14° North  Level Estimated
12:13AM 39.1244 117.3462 14° North  Level Estimated
12:14AM 39.1244 117.3462 14° North  Level Estimated
12:15AM 39.1244 117.3462 14° North  Level Estimated
12:16AM 39.1244 117.3462 14° North  Level Estimated
12:17AM 39.1244 117.3462 14° North  Level Estimated
12:18AM 39.1244 117.3462 14° North  Level Estimated
12:19AM 39.1244 117.3462 14° North  Level Estimated
12:20AM 39.1244 117.3462 14° North  Level Estimated
12:21AM 39.1244 117.3462 14° North  Level Estimated
12:22AM 39.1244 117.3462 14° North  Level Estimated
12:23AM 39.1244 117.3462 14° North  Level Estimated
12:24AM 39.1244 117.3462 14° North  Level Estimated
12:25AM 39.1244 117.3462 14° North  Level Estimated
12:26AM 39.1244 117.3462 14° North  Level Estimated